Latest Weather Observations for Perth

IDW60801

Issued at 3:04 pm WST Friday 20 October 2017 (issued every 30 minutes, with the page automatically refreshed every 10 minutes)

About weather observations | Map of weather stations | Latest weather observations for WA | Other Formats
Station Details ID: 009225 Name: PERTH METRO Lat: -31.92 Lon: 115.87 Height: 24.9 m
Data from the previous 72 hours. | See also: Recent months at Perth
Date/Time
WST
Temp
°C
App
Temp
°C
Dew
Point
°C
Rel
Hum
%
Delta-T
°C
Wind Press
QNH
hPa
Press
MSL
hPa
Rain since
9am
mm
Dir  Spd
km/h
Gust
km/h
Spd
kts
Gust
kts
20/03:00pm 29.4 26.1 4.8 21 12.7 ENE 11 19 6 10 1020.8 1020.7 0.0
20/02:30pm 29.1 25.3 3.9 20 12.8 ENE 13 20 7 11 1021.1 1021.0 0.0
20/02:00pm 28.7 24.6 4.2 21 12.4 NE 15 22 8 12 1021.4 1021.3 0.0
20/01:30pm 28.8 25.3 5.6 23 12.1 E 13 24 7 13 1021.6 1021.5 0.0
20/01:00pm 28.1 24.5 5.0 23 11.8 E 13 22 7 12 1022.1 1022.0 0.0
20/12:30pm 28.0 25.0 7.8 28 10.9 ENE 13 22 7 12 1022.6 1022.5 0.0
20/12:00pm 27.4 24.2 8.3 30 10.3 ENE 15 28 8 15 1022.9 1022.8 0.0
20/11:30am 27.1 24.4 7.5 29 10.5 E 11 24 6 13 1023.1 1023.0 0.0
20/11:00am 26.2 22.8 9.1 34 9.3 ENE 17 30 9 16 1023.5 1023.4 0.0
20/10:30am 25.1 21.2 7.3 32 9.4 ENE 17 33 9 18 1023.9 1023.8 0.0
20/10:00am 24.5 19.9 8.0 35 8.7 NE 22 35 12 19 1024.1 1024.0 0.0
20/09:30am 23.8 19.9 7.0 34 8.7 ENE 17 28 9 15 1024.3 1024.2 0.0
20/09:00am 22.1 17.8 7.1 38 7.7 ENE 19 35 10 19 1024.6 1024.5 0.0
20/08:30am 20.9 18.1 8.5 45 6.5 ENE 13 20 7 11 1024.7 1024.6 0.0
20/08:00am 19.2 15.7 7.3 46 6.0 ENE 15 28 8 15 1024.6 1024.5 0.0
20/07:30am 18.0 14.2 7.4 50 5.3 ENE 17 30 9 16 1024.5 1024.4 0.0
20/07:00am 16.8 15.1 8.5 58 4.2 ENE 7 15 4 8 1024.4 1024.3 0.0
20/06:30am 14.8 12.9 7.6 62 3.6 ENE 7 13 4 7 1024.1 1024.0 0.0
20/06:00am 14.0 11.7 7.5 65 3.2 E 9 15 5 8 1023.9 1023.8 0.0
20/05:30am 14.0 11.7 7.3 64 3.3 E 9 15 5 8 1023.8 1023.7 0.0
20/05:00am 14.5 11.8 7.3 62 3.5 E 11 24 6 13 1023.4 1023.3 0.0
20/04:30am 15.0 12.6 7.1 59 3.9 E 9 19 5 10 1023.1 1023.0 0.0
20/04:00am 15.1 12.7 7.2 59 3.9 E 9 17 5 9 1022.9 1022.8 0.0
20/03:30am 15.6 12.8 6.9 56 4.3 E 11 24 6 13 1022.9 1022.8 0.0
20/03:00am 15.8 12.6 6.8 55 4.4 E 13 26 7 14 1023.2 1023.1 0.0
20/02:30am 15.7 12.8 6.7 55 4.4 E 11 20 6 11 1023.1 1023.0 0.0
20/02:00am 16.1 13.2 6.3 52 4.8 E 11 19 6 10 1023.3 1023.2 0.0
20/01:30am 16.8 14.1 5.7 48 5.4 E 9 22 5 12 1023.3 1023.2 0.0
20/01:00am 17.0 13.9 5.6 47 5.5 E 11 22 6 12 1023.3 1023.2 0.0
20/12:30am 15.5 13.4 6.5 55 4.4 E 7 19 4 10 1023.3 1023.2 0.0
20/12:00am 13.0 12.9 9.6 80 1.7 CALM 0 0 0 0 1023.6 1023.5 0.0
 
Date/Time
WST
Temp
°C
App
Temp
°C
Dew
Point
°C
Rel
Hum
%
Delta-T
°C
Wind Press
QNH
hPa
Press
MSL
hPa
Rain since
9am
mm
Dir  Spd
km/h
Gust
km/h
Spd
kts
Gust
kts
19/11:30pm 14.0 14.2 10.4 79 1.9 CALM 0 6 0 3 1023.7 1023.6 0.0
19/11:00pm 14.5 14.1 9.7 73 2.5 SSE 2 6 1 3 1024.0 1023.9 0.0
19/10:30pm 15.3 14.2 9.9 70 2.8 SSE 6 9 3 5 1024.1 1024.0 0.0
19/10:00pm 16.4 15.1 9.8 65 3.4 SSE 7 9 4 5 1024.4 1024.3 0.0
19/09:30pm 17.1 15.1 10.2 64 3.7 S 11 15 6 8 1024.6 1024.5 0.0
19/09:00pm 17.6 16.1 10.5 63 3.8 SSE 9 15 5 8 1024.6 1024.5 0.0
19/08:30pm 18.0 16.7 11.1 64 3.7 S 9 15 5 8 1024.8 1024.7 0.0
19/08:00pm 17.8 17.2 11.6 67 3.4 SW 6 11 3 6 1025.0 1024.9 0.0
19/07:30pm 18.1 17.0 11.9 67 3.4 SSW 9 15 5 8 1024.7 1024.6 0.0
19/07:00pm 18.9 17.6 11.2 61 4.2 WSW 9 15 5 8 1024.7 1024.6 0.0
19/06:30pm 19.8 18.0 11.0 57 4.8 SE 11 17 6 9 1024.3 1024.2 0.0
19/06:00pm 23.1 20.6 4.6 30 9.1 E 7 11 4 6 1023.9 1023.8 0.0
19/05:30pm 23.6 20.8 5.0 30 9.3 ENE 9 15 5 8 1023.5 1023.4 0.0
19/05:00pm 24.3 21.7 6.1 31 9.3 E 9 17 5 9 1023.3 1023.2 0.0
19/04:30pm 24.3 21.8 4.6 28 9.8 ENE 7 13 4 7 1023.1 1023.0 0.0
19/04:00pm 24.2 20.9 4.6 28 9.7 ENE 11 22 6 12 1023.0 1022.9 0.0
19/03:30pm 24.3 21.1 5.1 29 9.7 ESE 11 20 6 11 1023.0 1022.9 0.0
19/03:00pm 23.5 20.2 4.5 29 9.4 ESE 11 19 6 10 1023.1 1023.0 0.0
19/02:30pm 23.8 20.5 4.7 29 9.5 E 11 24 6 13 1023.3 1023.2 0.0
19/02:00pm 23.1 20.1 6.0 33 8.6 E 11 19 6 10 1023.6 1023.5 0.0
19/01:30pm 22.1 19.0 5.5 34 8.3 E 11 19 6 10 1024.0 1023.9 0.0
19/01:00pm 21.9 18.6 6.2 36 7.9 ESE 13 24 7 13 1024.5 1024.4 0.0
19/12:30pm 21.9 18.9 6.2 36 7.9 ESE 11 20 6 11 1024.9 1024.8 0.0
19/12:00pm 21.2 18.2 7.8 42 6.9 ESE 13 28 7 15 1025.2 1025.1 0.0
19/11:30am 20.8 17.7 7.1 41 7.0 ESE 13 28 7 15 1025.7 1025.6 0.0
19/11:00am 20.1 16.8 8.1 46 6.2 E 15 28 8 15 1026.1 1026.0 0.0
19/10:30am 20.1 17.4 9.1 49 5.8 ESE 13 26 7 14 1026.3 1026.2 0.0
19/10:00am 18.6 15.5 7.1 47 5.8 E 13 24 7 13 1026.7 1026.6 0.0
19/09:30am 17.6 14.2 5.9 46 5.7 ESE 13 24 7 13 1027.0 1026.9 0.0
19/09:00am 16.1 12.7 5.7 50 5.0 E 13 22 7 12 1027.4 1027.3 0.2
19/08:30am 15.4 12.2 5.0 50 4.9 E 11 26 6 14 1027.5 1027.4 0.2
19/08:00am 14.1 10.3 4.1 51 4.5 ESE 13 24 7 13 1027.4 1027.3 0.2
19/07:30am 13.9 10.7 5.0 55 4.1 E 11 20 6 11 1027.5 1027.4 0.2
19/07:00am 12.7 10.3 5.4 61 3.4 E 7 15 4 8 1027.3 1027.2 0.2
19/06:30am 11.5 8.6 4.9 64 3.0 E 9 17 5 9 1026.9 1026.8 0.2
19/06:00am 9.3 7.8 4.9 74 2.0 SSE 2 7 1 4 1026.5 1026.4 0.2
19/05:30am 9.3 7.7 4.5 72 2.1 SSE 2 7 1 4 1026.3 1026.2 0.2
19/05:00am 10.2 6.9 4.6 68 2.5 SSE 11 17 6 9 1026.2 1026.1 0.2
19/04:30am 8.9 6.7 5.5 79 1.5 SE 6 11 3 6 1026.0 1025.9 0.2
19/04:00am 8.9 7.1 5.5 79 1.5 SSE 4 7 2 4 1025.7 1025.6 0.2
19/03:30am 9.8 7.6 6.0 77 1.8 SSE 7 11 4 6 1025.5 1025.4 0.2
19/03:00am 9.4 7.4 6.3 81 1.4 SSE 6 9 3 5 1025.5 1025.4 0.2
19/02:30am 9.9 7.9 6.3 78 1.7 SSE 6 9 3 5 1025.4 1025.3 0.2
19/02:00am 10.4 7.9 6.5 77 1.8 SSE 9 13 5 7 1025.3 1025.2 0.2
19/01:30am 11.0 8.1 6.6 74 2.1 SSW 11 15 6 8 1025.3 1025.2 0.2
19/01:00am 10.8 8.4 6.9 77 1.8 SSE 9 13 5 7 1025.3 1025.2 0.2
19/12:30am 8.9 8.1 6.7 86 1.0 CALM 0 0 0 0 1025.2 1025.1 0.2
19/12:00am 10.0 9.3 7.1 82 1.4 CALM 0 0 0 0 1025.4 1025.3 0.2
 
Date/Time
WST
Temp
°C
App
Temp
°C
Dew
Point
°C
Rel
Hum
%
Delta-T
°C
Wind Press
QNH
hPa
Press
MSL
hPa
Rain since
9am
mm
Dir  Spd
km/h
Gust
km/h
Spd
kts
Gust
kts
18/11:30pm 11.3 9.4 6.8 74 2.1 S 6 7 3 4 1025.3 1025.2 0.2
18/11:00pm 12.1 10.1 7.0 71 2.4 S 7 13 4 7 1025.3 1025.2 0.2
18/10:30pm 12.4 10.4 6.9 69 2.6 S 7 11 4 6 1025.4 1025.3 0.2
18/10:00pm 12.8 10.4 7.0 68 2.8 SSE 9 15 5 8 1025.2 1025.1 0.2
18/09:30pm 13.4 10.7 7.2 66 3.0 SSE 11 19 6 10 1025.2 1025.1 0.2
18/09:00pm 13.7 10.9 7.0 64 3.2 S 11 20 6 11 1025.1 1025.0 0.2
18/08:30pm 14.0 11.3 7.3 64 3.3 S 11 19 6 10 1024.6 1024.5 0.2
18/08:00pm 14.2 11.5 7.5 64 3.3 S 11 19 6 10 1024.2 1024.1 0.2
18/07:30pm 14.3 11.9 6.9 61 3.6 SSW 9 15 5 8 1023.9 1023.8 0.2
18/07:00pm 14.6 11.5 5.4 54 4.3 SSW 11 20 6 11 1023.5 1023.4 0.2
18/06:30pm 14.8 11.3 5.6 54 4.4 SSW 13 22 7 12 1023.2 1023.1 0.2
18/06:00pm 15.4 11.6 5.9 53 4.5 SSW 15 26 8 14 1022.8 1022.7 0.2
18/05:30pm 15.8 11.7 6.3 53 4.6 SW 17 28 9 15 1022.5 1022.4 0.2
18/05:00pm 16.8 12.7 6.0 49 5.2 SW 17 26 9 14 1022.2 1022.1 0.2
18/04:30pm 16.9 12.8 6.4 50 5.2 SW 17 30 9 16 1021.8 1021.7 0.2
18/04:00pm 17.5 13.1 4.8 43 6.0 SSW 17 28 9 15 1021.6 1021.5 0.2
18/03:30pm 18.4 14.2 5.9 44 6.1 SSW 17 28 9 15 1021.4 1021.3 0.2
18/03:00pm 17.2 12.5 5.2 45 5.7 SW 19 30 10 16 1021.2 1021.1 0.2
18/02:30pm 18.3 13.7 5.8 44 6.1 SW 19 30 10 16 1021.1 1021.0 0.2
18/02:00pm 17.2 13.0 5.8 47 5.5 WSW 17 30 9 16 1021.2 1021.1 0.2
18/01:30pm 19.1 14.9 5.9 42 6.5 SW 17 32 9 17 1021.2 1021.1 0.2
18/01:00pm 18.7 14.1 5.5 42 6.4 SW 19 30 10 16 1021.2 1021.1 0.2
18/12:30pm 18.4 14.3 6.3 45 6.0 SW 17 28 9 15 1021.0 1020.9 0.2
18/12:00pm 17.7 13.6 6.3 47 5.6 SW 17 28 9 15 1021.0 1020.9 0.2
18/11:30am 17.5 13.3 5.8 46 5.7 SW 17 33 9 18 1020.9 1020.8 0.2
18/11:00am 18.0 14.9 7.1 49 5.4 SW 13 24 7 13 1020.8 1020.7 0.2
18/10:30am 16.3 11.9 6.4 52 4.8 WSW 19 32 10 17 1020.8 1020.7 0.2
18/10:00am 16.7 12.7 6.5 51 5.0 SW 17 37 9 20 1020.5 1020.4 0.0
18/09:30am 17.4 13.5 7.2 51 5.1 SW 17 30 9 16 1020.2 1020.1 0.0
18/09:00am 17.2 13.3 7.0 51 5.1 SW 17 26 9 14 1019.9 1019.8 6.6
18/08:30am 16.6 12.2 6.7 52 4.9 SW 19 32 10 17 1019.4 1019.3 6.6
18/08:00am 15.5 11.8 6.2 54 4.5 SW 15 28 8 15 1019.1 1019.0 6.6
18/07:30am 15.4 11.9 7.4 59 4.0 SW 15 24 8 13 1018.9 1018.8 6.6
18/07:00am 14.9 11.5 7.7 62 3.6 SW 15 26 8 14 1018.3 1018.2 6.6
18/06:30am 14.8 13.0 7.8 63 3.5 WSW 7 13 4 7 1017.7 1017.6 6.6
18/06:00am 13.7 11.6 6.8 63 3.3 SW 7 11 4 6 1017.2 1017.1 6.6
18/05:30am 13.5 10.9 5.9 60 3.6 WSW 9 19 5 10 1016.9 1016.8 6.6
18/05:00am 14.1 10.7 6.0 58 3.9 WSW 13 22 7 12 1016.4 1016.3 6.6
18/04:30am 14.1 10.8 6.5 60 3.7 WSW 13 20 7 11 1016.0 1015.9 6.6
18/04:00am 14.3 11.4 6.4 59 3.8 WSW 11 20 6 11 1015.5 1015.4 6.6
18/03:30am 14.6 11.4 6.7 59 3.8 WSW 13 24 7 13 1015.1 1015.0 6.6
18/03:00am 14.6 11.3 6.4 58 4.0 WSW 13 20 7 11 1014.7 1014.6 6.6
18/02:30am 14.6 11.5 7.4 62 3.5 SW 13 24 7 13 1014.5 1014.4 6.6
18/02:00am 14.4 11.2 8.4 67 3.0 WSW 15 26 8 14 1014.2 1014.1 6.6
18/01:30am 14.2 12.0 7.7 65 3.2 WSW 9 17 5 9 1013.8 1013.7 6.6
18/01:00am 14.5 12.0 8.2 66 3.2 WSW 11 17 6 9 1013.8 1013.7 6.6
18/12:30am 14.9 11.6 8.2 64 3.4 WSW 15 24 8 13 1013.8 1013.7 6.6
18/12:00am 14.9 11.4 8.6 66 3.2 WSW 17 28 9 15 1013.8 1013.7 6.6
 
Date/Time
WST
Temp
°C
App
Temp
°C
Dew
Point
°C
Rel
Hum
%
Delta-T
°C
Wind Press
QNH
hPa
Press
MSL
hPa
Rain since
9am
mm
Dir  Spd
km/h
Gust
km/h
Spd
kts
Gust
kts
17/11:30pm 15.3 11.7 9.7 69 2.9 WSW 19 32 10 17 1013.6 1013.5 6.6
17/11:00pm 14.9 12.1 11.3 79 1.9 WSW 17 32 9 17 1013.4 1013.3 6.6
17/10:30pm 14.9 12.5 12.6 86 1.3 WSW 17 33 9 18 1012.9 1012.8 6.6
17/10:00pm 14.9 12.1 13.1 89 1.0 WSW 20 44 11 24 1012.7 1012.6 6.4
17/09:30pm 15.0 13.8 13.9 93 0.6 W 13 22 7 12 1012.1 1012.1 5.8
17/09:00pm 14.5 13.0 13.2 92 0.7 WNW 13 24 7 13 1012.1 1012.1 5.8
17/08:30pm 15.3 13.8 13.0 86 1.3 WNW 13 26 7 14 1011.8 1011.8 2.2
17/08:00pm 15.6 13.9 13.6 88 1.1 NW 15 24 8 13 1011.5 1011.5 2.0
17/07:30pm 15.3 14.4 13.8 91 0.8 NW 11 26 6 14 1011.5 1011.5 2.0
17/07:00pm 14.9 13.9 13.3 90 0.9 NW 11 22 6 12 1011.1 1011.1 0.8
17/06:30pm 15.5 14.0 13.0 85 1.4 NW 13 28 7 15 1010.9 1010.9 0.4
17/06:00pm 17.3 14.4 9.7 61 4.0 NW 15 28 8 15 1010.5 1010.5 0.2
17/05:30pm 17.7 14.2 10.1 61 4.0 NW 19 30 10 16 1010.1 1010.1 0.2
17/05:00pm 18.1 14.8 9.5 57 4.5 NW 17 35 9 19 1010.1 1010.1 0.2
17/04:30pm 18.2 15.0 10.1 59 4.3 NW 17 33 9 18 1009.8 1009.8 0.2
17/04:00pm 18.5 15.7 11.3 63 3.9 NW 17 37 9 20 1009.8 1009.8 0.2
17/03:30pm 18.7 15.2 10.3 58 4.5 NW 19 33 10 18 1009.7 1009.7 0.2

Other Formats:

Comma delimited format used in spreadsheet applications
http://www.bom.gov.au/fwo/IDW60801/IDW60801.94608.axf

JavaScript Object Notation format (JSON) in row-major order
http://www.bom.gov.au/fwo/IDW60801/IDW60801.94608.json